Time;durP1;ratioP1;P1;durP2;ratioP2;P2;SDS_P1;SDS_P2;PMS_P1;PMS_P2;Temp;Humidity;BMP_temperature;BMP_pressure;BME280_temperature;BME280_humidity;BME280_pressure;Samples;Min_cycle;Max_cycle;Signal;HPM_P1;HPM_P2
2023/03/14 00:00:38;;;;;;;5.60;1.50;;;12.20;99.90;;;12.33;81.14;98246.19;5040060;28;20393;-78
2023/03/14 00:03:03;;;;;;;4.20;1.17;;;12.20;99.90;;;12.32;81.89;98245.34;5030851;28;20452;-79
2023/03/14 00:05:30;;;;;;;3.80;1.20;;;12.20;99.90;;;12.28;82.03;98218.91;5032395;28;20061;-79
2023/03/14 00:07:56;;;;;;;4.85;1.75;;;12.20;99.90;;;12.23;82.47;98204.19;5028111;28;20401;-79
2023/03/14 00:10:21;;;;;;;4.15;1.30;;;12.20;99.90;;;12.28;82.79;98195.09;5031824;28;20041;-79
2023/03/14 00:12:47;;;;;;;5.32;2.05;;;12.10;99.90;;;12.25;83.39;98181.22;5031657;28;20045;-79
2023/03/14 00:15:13;;;;;;;4.40;1.50;;;12.10;99.90;;;12.27;84.23;98171.59;5031951;28;20042;-79
2023/03/14 00:17:39;;;;;;;5.40;2.30;;;12.20;99.90;;;12.26;84.47;98155.50;5031443;28;20049;-79
2023/03/14 00:20:11;;;;;;;4.60;1.35;;;12.10;99.90;;;12.21;85.53;98162.66;5031757;28;20041;-79
2023/03/14 00:22:41;;;;;;;2.47;1.08;;;12.10;99.90;;;12.18;85.81;98187.81;5040528;28;20091;-78
2023/03/14 00:25:10;;;;;;;5.28;1.40;;;12.10;99.90;;;12.13;86.42;98184.31;5031555;28;20061;-79
2023/03/14 00:27:37;;;;;;;6.68;1.48;;;12.00;99.90;;;12.14;86.84;98178.56;5027371;28;20033;-78
2023/03/14 00:30:04;;;;;;;3.35;1.30;;;12.00;99.90;;;12.07;87.22;98173.44;5030937;28;20068;-80
2023/03/14 00:32:29;;;;;;;4.17;1.27;;;11.90;99.90;;;12.06;87.61;98184.66;5031751;28;20120;-79
2023/03/14 00:34:55;;;;;;;3.97;1.23;;;11.90;99.90;;;11.96;88.07;98193.72;5044437;28;20286;-80
2023/03/14 00:37:21;;;;;;;2.53;1.10;;;11.80;99.90;;;11.91;88.57;98191.84;5047274;28;20378;-79
2023/03/14 00:39:47;;;;;;;3.65;1.10;;;11.80;99.90;;;11.89;88.94;98209.63;5047527;28;20040;-79
2023/03/14 00:42:14;;;;;;;4.47;1.25;;;11.70;99.90;;;11.71;89.97;98198.28;5031659;28;20506;-79
2023/03/14 00:44:39;;;;;;;4.07;1.30;;;11.60;99.90;;;11.64;91.04;98214.19;5026564;28;20033;-79
2023/03/14 00:47:06;;;;;;;3.92;1.38;;;11.50;99.90;;;11.66;91.29;98229.16;5032178;28;20028;-79
2023/03/14 00:49:32;;;;;;;4.32;1.40;;;11.40;99.90;;;11.65;91.87;98234.91;5030779;28;20517;-79
2023/03/14 00:51:58;;;;;;;3.35;1.20;;;11.40;99.90;;;11.69;92.04;98227.00;5013685;28;20037;-79
2023/03/14 00:54:23;;;;;;;6.28;1.33;;;11.40;99.90;;;11.71;92.00;98249.38;5044742;28;20038;-79
2023/03/14 00:56:49;;;;;;;3.70;1.40;;;11.40;99.90;;;11.74;91.80;98235.16;5029611;28;20397;-79
2023/03/14 00:59:17;;;;;;;3.75;1.40;;;11.40;99.90;;;11.68;92.35;98211.69;5046662;28;20409;-79
2023/03/14 01:01:42;;;;;;;4.78;1.50;;;11.40;99.90;;;11.62;92.80;98214.44;5037417;28;20071;-79
2023/03/14 01:04:08;;;;;;;2.83;1.20;;;11.40;99.90;;;11.63;92.90;98196.97;5030457;28;20034;-79
2023/03/14 01:06:34;;;;;;;4.35;1.23;;;11.40;99.90;;;11.76;92.12;98186.50;5029971;28;20060;-80
2023/03/14 01:09:00;;;;;;;4.72;1.15;;;11.50;99.90;;;11.78;91.18;98165.19;5029718;28;20041;-79
2023/03/14 01:11:33;;;;;;;3.10;1.33;;;11.60;99.90;;;11.92;89.75;98159.88;5038041;28;20072;-79
2023/03/14 01:13:59;;;;;;;4.85;1.30;;;11.60;99.90;;;11.91;88.91;98137.19;5045826;28;20386;-79
2023/03/14 01:16:32;;;;;;;4.10;1.27;;;11.70;99.90;;;11.99;88.27;98148.63;5029029;28;20120;-79
2023/03/14 01:19:01;;;;;;;3.10;1.30;;;11.70;99.90;;;12.04;88.02;98152.13;5029831;28;20033;-79
2023/03/14 01:21:31;;;;;;;3.75;1.35;;;11.80;99.90;;;12.07;87.51;98148.03;5046396;28;20044;-79
2023/03/14 01:23:59;;;;;;;4.60;1.15;;;11.80;99.90;;;11.98;87.41;98157.94;5029788;28;20034;-79
2023/03/14 01:26:30;;;;;;;3.58;1.27;;;11.90;99.90;;;12.05;86.88;98142.84;5029502;28;20481;-79
2023/03/14 01:28:56;;;;;;;4.95;1.40;;;11.90;99.90;;;12.09;86.07;98140.34;5028710;28;20043;-77
2023/03/14 01:31:24;;;;;;;4.20;1.33;;;11.90;99.90;;;12.14;85.78;98139.50;5028865;28;20389;-79
2023/03/14 01:33:50;;;;;;;2.90;1.23;;;12.00;99.90;;;12.07;85.67;98137.09;5030722;28;20040;-77
2023/03/14 01:36:18;;;;;;;4.20;1.10;;;12.00;99.90;;;12.10;85.34;98119.31;5044594;28;20180;-79
2023/03/14 01:38:44;;;;;;;5.72;1.20;;;11.90;99.90;;;12.09;85.21;98115.75;5024228;28;20038;-79
2023/03/14 01:41:17;;;;;;;4.70;1.13;;;12.00;99.90;;;11.99;85.90;98124.03;5029121;28;20034;-79
2023/03/14 01:43:44;;;;;;;7.93;1.27;;;11.90;99.90;;;11.96;85.93;98121.88;5029375;28;20033;-78
2023/03/14 01:46:41;;;;;;;3.75;1.20;;;11.90;99.90;;;11.98;85.67;98142.34;5012031;28;20037;-79
2023/03/14 01:49:31;;;;;;;4.30;1.37;;;11.90;99.90;;;12.02;85.61;98148.06;5039452;28;20548;-79
2023/03/14 01:52:13;;;;;;;3.83;1.30;;;11.90;99.90;;;12.01;86.03;98151.91;5028717;28;20367;-79
2023/03/14 01:54:51;;;;;;;5.18;1.48;;;11.90;99.90;;;12.03;85.61;98125.91;5026468;28;20046;-79
2023/03/14 01:57:27;;;;;;;4.80;1.52;;;11.90;99.90;;;12.00;85.57;98107.34;5027069;28;20520;-78
2023/03/14 02:00:11;;;;;;;3.92;1.35;;;11.90;99.90;;;12.03;85.32;98104.06;5030149;28;20053;-79
2023/03/14 02:02:44;;;;;;;2.33;0.93;;;11.90;99.90;;;12.00;85.59;98120.19;5029229;28;20365;-79
2023/03/14 02:05:15;;;;;;;4.78;1.10;;;11.90;99.90;;;11.90;86.08;98110.97;5012081;28;20033;-79
2023/03/14 02:07:52;;;;;;;3.13;1.05;;;11.90;99.90;;;12.00;85.70;98118.25;5022816;28;20037;-79
2023/03/14 02:10:28;;;;;;;3.67;1.08;;;11.90;99.90;;;11.94;85.72;98114.78;5043944;28;20034;-79
2023/03/14 02:13:01;;;;;;;3.17;1.17;;;11.90;99.90;;;11.98;85.50;98115.00;5027111;28;20037;-79
2023/03/14 02:15:35;;;;;;;2.75;1.00;;;11.90;99.90;;;11.94;86.13;98124.88;5039258;28;20116;-78
2023/03/14 02:18:12;;;;;;;3.42;1.13;;;11.80;99.90;;;11.85;86.24;98118.41;5026053;28;20065;-79
2023/03/14 02:21:25;;;;;;;3.05;1.20;;;11.80;99.90;;;11.94;85.69;98119.41;5028671;28;20793;-79
2023/03/14 02:24:16;;;;;;;5.43;1.23;;;11.80;99.90;;;11.99;84.69;98127.56;5019072;28;20124;-79
2023/03/14 02:27:10;;;;;;;3.20;0.90;;;11.90;99.90;;;12.02;84.12;98131.69;5042366;28;20049;-79
2023/03/14 02:29:59;;;;;;;5.90;1.23;;;11.90;99.90;;;12.05;83.63;98136.56;5024887;28;20075;-79
2023/03/14 02:32:30;;;;;;;3.38;1.08;;;12.00;99.90;;;12.00;82.95;98122.94;5027319;28;20025;-78
2023/03/14 02:34:59;;;;;;;6.63;1.50;;;12.00;99.90;;;12.05;82.71;98111.97;5045482;28;20037;-79
2023/03/14 02:37:36;;;;;;;3.40;1.08;;;12.00;99.90;;;12.02;83.28;98115.28;5042993;28;20030;-79
2023/03/14 02:40:04;;;;;;;5.80;1.58;;;11.90;99.90;;;11.87;82.77;98100.63;5027879;28;20392;-78
2023/03/14 02:42:31;;;;;;;3.08;0.93;;;11.80;99.90;;;11.98;82.26;98095.09;5028667;28;20401;-80
2023/03/14 02:45:09;;;;;;;4.55;1.13;;;11.90;99.90;;;11.93;82.33;98110.44;5007926;28;20492;-79
2023/03/14 02:48:10;;;;;;;5.78;1.20;;;11.80;99.90;;;11.81;82.00;98066.28;5019648;28;20037;-80
2023/03/14 02:50:38;;;;;;;5.03;1.10;;;11.80;99.90;;;11.82;82.34;98087.03;5029038;28;20033;-79
2023/03/14 02:53:04;;;;;;;7.00;1.17;;;11.80;99.90;;;11.76;82.82;98093.63;5046534;28;20041;-79
2023/03/14 02:55:30;;;;;;;4.63;1.15;;;11.70;99.90;;;11.71;82.48;98074.56;5041524;28;20056;-78
2023/03/14 02:58:00;;;;;;;5.13;0.90;;;11.70;99.90;;;11.62;83.12;98088.81;5028412;28;20084;-79
2023/03/14 03:00:27;;;;;;;3.90;0.93;;;11.60;99.90;;;11.68;82.79;98075.16;5035402;28;20029;-78
2023/03/14 03:02:53;;;;;;;3.95;1.30;;;11.60;99.90;;;11.63;82.47;98071.34;5029267;28;20044;-78
2023/03/14 03:05:19;;;;;;;3.30;1.10;;;11.60;99.90;;;11.62;82.61;98066.97;5027224;28;20037;-79
2023/03/14 03:07:45;;;;;;;4.10;1.02;;;11.60;99.90;;;11.64;82.17;98051.13;5029397;28;20384;-79
2023/03/14 03:10:11;;;;;;;6.00;1.35;;;11.60;99.90;;;11.64;82.60;98078.44;5042128;28;20042;-79
2023/03/14 03:12:37;;;;;;;2.80;1.23;;;11.60;99.90;;;11.69;82.26;98054.94;5027689;28;20030;-79
2023/03/14 03:15:05;;;;;;;6.63;1.10;;;11.60;99.90;;;11.63;82.96;98063.16;5037797;28;20117;-80
2023/03/14 03:17:34;;;;;;;3.42;1.20;;;11.60;99.90;;;11.54;83.29;98061.31;5042770;28;20033;-79
2023/03/14 03:19:59;;;;;;;2.63;0.98;;;11.50;99.90;;;11.50;83.33;98075.53;5028764;28;20037;-78
2023/03/14 03:22:25;;;;;;;5.88;1.17;;;11.50;99.90;;;11.50;83.42;98058.38;5025638;28;20038;-79
2023/03/14 03:24:51;;;;;;;5.57;1.10;;;11.50;99.90;;;11.48;82.84;98055.91;5028108;28;20476;-80
2023/03/14 03:27:16;;;;;;;6.30;1.23;;;11.40;99.90;;;11.44;83.27;98078.63;5027604;28;20087;-78
2023/03/14 03:29:42;;;;;;;3.60;1.05;;;11.40;99.90;;;11.45;83.29;98053.75;5028025;28;20076;-78
2023/03/14 03:32:08;;;;;;;4.30;0.82;;;11.40;99.90;;;11.47;83.01;98056.22;5028253;28;20034;-78
2023/03/14 03:34:34;;;;;;;3.92;1.23;;;11.40;99.90;;;11.53;82.62;98052.31;5028274;28;20033;-78
2023/03/14 03:37:00;;;;;;;3.20;0.93;;;11.40;99.90;;;11.57;82.45;98056.09;5031998;28;20037;-78
2023/03/14 03:39:29;;;;;;;5.07;1.20;;;11.50;99.90;;;11.59;82.76;98053.09;5019851;28;20029;-80
2023/03/14 03:41:55;;;;;;;4.22;0.82;;;11.50;99.90;;;11.61;81.59;98034.50;5039230;28;20039;-79
2023/03/14 03:44:22;;;;;;;4.60;1.23;;;11.50;99.90;;;11.65;81.83;98041.81;5041928;28;20102;-78
2023/03/14 03:46:48;;;;;;;3.70;0.80;;;11.60;99.90;;;11.66;81.68;98048.91;5046310;28;20552;-78
2023/03/14 03:49:13;;;;;;;6.13;1.17;;;11.60;99.90;;;11.45;86.82;98061.16;5031504;28;20041;-79
2023/03/14 03:51:40;;;;;;;2.97;1.10;;;11.50;99.90;;;10.99;90.47;98060.38;5040782;28;20042;-79
2023/03/14 03:54:06;;;;;;;4.33;0.90;;;11.10;99.90;;;10.83;94.03;98069.75;5031717;28;20033;-81
2023/03/14 03:56:33;;;;;;;4.10;1.02;;;10.80;99.90;;;10.65;94.29;98085.66;5028002;28;20164;-79
2023/03/14 03:58:59;;;;;;;6.72;1.30;;;10.60;99.90;;;10.35;99.91;98046.53;5028330;28;20034;-83
2023/03/14 04:01:25;;;;;;;1.95;0.90;;;10.50;99.90;;;10.03;100.00;98113.91;5010939;28;20037;-83
2023/03/14 04:03:53;;;;;;;5.28;1.40;;;10.40;99.90;;;9.92;100.00;98172.19;5029142;28;20116;-82
2023/03/14 04:06:19;;;;;;;6.40;1.33;;;10.10;99.90;;;9.63;100.00;98148.22;5032544;28;20560;-79
2023/03/14 04:08:47;;;;;;;5.35;1.25;;;9.90;99.90;;;9.50;100.00;98144.13;5045436;28;20123;-80
2023/03/14 04:11:32;;;;;;;6.75;1.23;;;9.60;99.90;;;9.36;100.00;98130.25;5044754;28;20044;-79
2023/03/14 04:14:06;;;;;;;4.70;1.30;;;9.50;99.90;;;9.33;100.00;98112.56;5029246;28;20040;-80
2023/03/14 04:16:32;;;;;;;6.47;1.33;;;9.40;99.90;;;9.28;100.00;98084.53;5030630;28;20029;-80
2023/03/14 04:19:03;;;;;;;5.22;1.20;;;9.30;99.90;;;9.31;100.00;98076.66;5030052;28;20029;-80
2023/03/14 04:21:31;;;;;;;5.30;1.20;;;9.30;99.90;;;9.27;100.00;98093.78;5030381;28;20120;-80
2023/03/14 04:23:57;;;;;;;3.90;1.23;;;9.20;99.90;;;9.23;100.00;98089.97;5029903;28;20112;-79
2023/03/14 04:26:25;;;;;;;6.38;1.33;;;9.20;99.90;;;9.18;100.00;98112.53;5026420;28;20065;-80
2023/03/14 04:28:50;;;;;;;3.97;0.98;;;9.10;99.90;;;9.14;100.00;98085.06;5031789;28;20038;-80
2023/03/14 04:31:21;;;;;;;6.28;0.70;;;9.10;99.90;;;9.13;100.00;98088.06;5039823;28;20034;-80
2023/03/14 04:33:48;;;;;;;3.67;0.95;;;9.10;99.90;;;9.07;100.00;98092.66;5029766;28;20030;-79
2023/03/14 04:36:17;;;;;;;3.67;0.90;;;9.00;99.90;;;8.93;100.00;98089.66;5030761;28;20037;-79
2023/03/14 04:38:43;;;;;;;2.00;0.60;;;8.90;99.90;;;8.91;100.00;98089.94;5031109;28;20079;-78
2023/03/14 04:41:10;;;;;;;4.95;0.95;;;8.90;99.90;;;8.87;100.00;98080.66;5046973;28;20060;-79
2023/03/14 04:43:35;;;;;;;2.72;0.70;;;8.80;99.90;;;8.76;100.00;98073.56;5038192;28;20037;-79
2023/03/14 04:46:05;;;;;;;2.28;0.60;;;8.70;99.90;;;8.67;100.00;98067.84;5046156;28;20041;-78
2023/03/14 04:48:31;;;;;;;2.70;0.63;;;8.60;99.90;;;8.63;100.00;98066.75;5030071;28;20048;-79
2023/03/14 04:50:58;;;;;;;2.57;0.50;;;8.70;99.90;;;8.78;100.00;98064.06;5029439;28;20041;-79
2023/03/14 04:53:26;;;;;;;0.90;0.38;;;8.70;99.90;;;8.70;100.00;98077.38;5030042;28;20048;-78
2023/03/14 04:55:55;;;;;;;;;;;8.70;99.90;;;8.62;100.00;98070.53;5039200;28;20034;-78
2023/03/14 04:58:24;;;;;;;2.05;0.45;;;8.60;99.90;;;8.57;100.00;98046.06;5019666;28;20266;-79
2023/03/14 05:00:50;;;;;;;2.28;0.40;;;8.70;99.90;;;8.48;100.00;98054.69;5045017;28;20029;-79
2023/03/14 05:03:40;;;;;;;1.83;0.60;;;8.60;99.90;;;8.52;100.00;98044.16;5025254;28;20125;-79
2023/03/14 05:06:25;;;;;;;3.53;0.47;;;8.50;99.90;;;8.48;100.00;98043.81;5031843;28;20101;-76
2023/03/14 05:09:05;;;;;;;2.67;0.38;;;8.50;99.90;;;8.61;100.00;98053.41;5030106;28;20029;-77
2023/03/14 05:11:32;;;;;;;3.03;0.70;;;8.60;99.90;;;8.69;100.00;98048.56;5031063;28;20049;-76
2023/03/14 05:14:06;;;;;;;1.83;0.40;;;8.70;99.90;;;8.83;100.00;98036.06;5040725;28;20033;-76
2023/03/14 05:16:44;;;;;;;0.65;0.28;;;8.80;99.90;;;8.87;100.00;98034.44;5037909;28;20380;-78
2023/03/14 05:19:10;;;;;;;2.78;0.50;;;8.90;99.90;;;8.92;100.00;98025.47;5026412;28;20049;-78
2023/03/14 05:21:55;;;;;;;1.70;0.55;;;8.90;99.90;;;8.88;100.00;98068.69;5030979;28;20030;-77
2023/03/14 05:24:42;;;;;;;3.28;0.60;;;8.90;99.90;;;8.87;100.00;98003.72;5025010;28;20073;-78
2023/03/14 05:27:35;;;;;;;1.88;0.60;;;8.90;99.90;;;8.90;100.00;98019.50;5043939;28;20029;-79
2023/03/14 05:30:32;;;;;;;1.95;0.60;;;9.00;99.90;;;8.87;100.00;98047.22;5030270;28;20033;-78
2023/03/14 05:33:06;;;;;;;2.83;0.70;;;8.90;99.90;;;8.89;100.00;98012.44;5030616;28;20042;-78
2023/03/14 05:35:42;;;;;;;2.90;1.05;;;9.00;99.90;;;8.85;100.00;98000.47;5045371;28;20445;-78
2023/03/14 05:38:23;;;;;;;3.97;0.80;;;9.00;99.90;;;8.93;100.00;98008.06;5024807;28;20041;-80
2023/03/14 05:41:06;;;;;;;4.63;0.80;;;9.00;99.90;;;8.98;100.00;98020.88;5029226;28;20037;-78
2023/03/14 05:43:40;;;;;;;6.07;0.80;;;9.00;99.90;;;8.94;100.00;98022.50;5043059;28;20393;-79
2023/03/14 05:46:29;;;;;;;4.43;0.82;;;9.00;99.90;;;8.91;100.00;98019.25;5046217;28;20053;-78
2023/03/14 05:49:02;;;;;;;6.53;1.00;;;8.90;99.90;;;9.05;100.00;98030.41;5033014;28;20469;-78
2023/03/14 05:51:47;;;;;;;3.63;0.88;;;9.00;99.90;;;9.01;100.00;98002.09;5042513;28;20048;-77
2023/03/14 05:54:45;;;;;;;3.17;1.00;;;9.00;99.90;;;9.17;100.00;98021.97;5014888;28;20037;-78
2023/03/14 05:57:29;;;;;;;3.67;0.85;;;9.20;99.90;;;9.22;100.00;98042.91;5026934;28;20048;-77
2023/03/14 06:00:14;;;;;;;4.93;0.80;;;9.20;99.90;;;9.20;100.00;98021.44;5024953;28;20060;-78
2023/03/14 06:02:47;;;;;;;6.13;1.35;;;9.20;99.90;;;9.31;100.00;98002.38;5029106;28;20051;-78
2023/03/14 06:05:21;;;;;;;5.90;1.20;;;9.40;99.90;;;9.39;100.00;98020.06;5028932;28;20397;-77
2023/03/14 06:07:47;;;;;;;4.43;0.90;;;9.40;99.90;;;9.46;100.00;98029.59;5045346;28;20441;-77
2023/03/14 06:10:13;;;;;;;6.40;1.00;;;9.40;99.90;;;9.44;100.00;98037.22;5028608;28;20049;-78
2023/03/14 06:12:38;;;;;;;5.05;1.30;;;9.30;99.90;;;9.52;100.00;98035.81;5026690;28;20509;-77
2023/03/14 06:15:05;;;;;;;3.70;1.08;;;9.40;99.90;;;9.66;100.00;98036.06;5044975;28;20044;-78
2023/03/14 06:17:32;;;;;;;3.17;0.85;;;9.50;99.90;;;9.64;100.00;98046.41;5039603;28;20037;-77
2023/03/14 06:20:07;;;;;;;8.75;1.10;;;9.50;99.90;;;9.74;100.00;98031.97;5027122;28;20041;-78
2023/03/14 06:22:33;;;;;;;6.57;0.90;;;9.60;99.90;;;9.82;100.00;98034.16;5008880;28;20112;-78
2023/03/14 06:24:58;;;;;;;4.70;0.88;;;9.70;99.90;;;9.96;100.00;98026.22;5022601;28;20480;-77
2023/03/14 06:27:25;;;;;;;6.55;1.05;;;9.80;99.90;;;10.07;100.00;98027.81;5042174;28;20029;-78
2023/03/14 06:29:54;;;;;;;4.75;0.95;;;9.90;99.90;;;10.17;100.00;98021.50;5028040;28;20045;-78
2023/03/14 06:32:20;;;;;;;4.18;0.93;;;10.00;99.90;;;10.18;100.00;98027.75;5044087;28;20033;-78
2023/03/14 06:34:47;;;;;;;7.13;1.20;;;10.10;99.90;;;10.32;100.00;98047.06;5027596;28;20040;-78
2023/03/14 06:37:13;;;;;;;5.60;1.00;;;10.20;99.90;;;10.43;99.08;98065.03;5028345;28;20041;-77
2023/03/14 06:39:39;;;;;;;4.40;1.05;;;10.30;99.90;;;10.43;98.86;98062.31;5037989;28;20373;-78
2023/03/14 06:42:12;;;;;;;5.78;0.95;;;10.40;99.90;;;10.58;98.16;98052.41;5043460;28;20430;-77
2023/03/14 06:44:39;;;;;;;2.67;0.67;;;10.40;99.90;;;10.54;97.46;98064.97;5042425;28;20029;-78
2023/03/14 06:47:05;;;;;;;2.92;0.70;;;10.40;99.90;;;10.53;96.78;98063.34;5044372;28;20036;-77
2023/03/14 06:49:33;;;;;;;2.95;0.68;;;10.50;99.90;;;10.52;96.03;98059.00;5027858;28;20034;-78
2023/03/14 06:52:01;;;;;;;5.13;0.95;;;10.50;99.90;;;10.57;95.87;98048.06;5021688;28;20037;-77
2023/03/14 06:54:26;;;;;;;2.92;0.90;;;10.50;99.90;;;10.53;94.94;98058.72;5029964;28;20060;-76
2023/03/14 06:56:52;;;;;;;4.45;0.57;;;10.50;99.90;;;10.53;93.66;98055.19;5029126;28;20040;-77
2023/03/14 06:59:18;;;;;;;4.10;0.55;;;10.50;99.90;;;10.63;93.33;98057.88;5030247;28;20057;-78
2023/03/14 07:01:47;;;;;;;1.15;0.30;;;10.50;99.90;;;10.65;92.80;98077.50;5036754;28;20026;-78
2023/03/14 07:04:15;;;;;;;1.67;0.60;;;10.60;99.90;;;10.75;92.46;98058.34;5044494;28;20120;-77
2023/03/14 07:06:46;;;;;;;3.15;0.77;;;10.60;99.90;;;10.81;92.45;98071.94;5045288;28;20191;-77
2023/03/14 07:09:12;;;;;;;4.03;0.50;;;10.70;99.90;;;10.81;92.16;98071.94;5029007;28;20033;-76
2023/03/14 07:11:45;;;;;;;3.30;0.57;;;10.70;99.90;;;10.92;93.13;98073.53;5028911;28;20034;-78
2023/03/14 07:14:11;;;;;;;2.03;0.40;;;10.80;99.90;;;10.76;94.38;98062.69;5033489;28;20084;-79
2023/03/14 07:16:38;;;;;;;2.75;0.50;;;10.80;99.90;;;10.52;97.74;98102.63;5041614;28;20032;-77
2023/03/14 07:19:03;;;;;;;2.85;0.80;;;10.50;99.90;;;10.28;100.00;98097.75;5030574;28;20037;-77
2023/03/14 07:21:32;;;;;;;3.13;0.43;;;10.30;99.90;;;9.99;100.00;98071.13;5046551;28;20088;-76
2023/03/14 07:23:58;;;;;;;2.70;0.70;;;10.00;99.90;;;9.91;100.00;98083.41;5032166;28;20501;-74
2023/03/14 07:26:24;;;;;;;2.47;0.35;;;9.90;99.90;;;10.03;100.00;98070.31;5030365;28;20087;-77
2023/03/14 07:28:51;;;;;;;4.03;0.55;;;9.90;99.90;;;10.16;100.00;98073.53;5047858;28;20401;-75
2023/03/14 07:31:19;;;;;;;4.18;0.60;;;9.90;99.90;;;10.14;100.00;98073.84;5031570;28;20045;-76
2023/03/14 07:33:46;;;;;;;2.30;0.40;;;10.00;99.90;;;10.17;100.00;98073.28;5040257;28;20033;-76
2023/03/14 07:36:12;;;;;;;2.63;0.60;;;10.10;99.90;;;10.02;100.00;98076.03;5045671;28;20037;-78
2023/03/14 07:38:41;;;;;;;2.65;0.40;;;10.10;99.90;;;10.25;100.00;98079.25;5029002;28;20040;-77
2023/03/14 07:41:22;;;;;;;1.27;0.40;;;10.20;99.90;;;10.27;100.00;98090.69;5048594;28;20091;-76
2023/03/14 07:44:08;;;;;;;1.73;0.40;;;10.20;99.90;;;10.05;100.00;98098.09;5032523;28;20045;-77
2023/03/14 07:46:34;;;;;;;2.78;0.55;;;10.10;99.90;;;10.03;100.00;98086.66;5031102;28;20038;-77
2023/03/14 07:49:00;;;;;;;1.75;0.40;;;10.00;99.90;;;9.78;100.00;98096.50;5032497;28;20052;-76
2023/03/14 07:51:26;;;;;;;2.83;0.50;;;9.80;99.90;;;9.60;100.00;98083.44;5032376;28;20029;-83
2023/03/14 07:53:51;;;;;;;2.22;0.50;;;9.60;99.90;;;9.52;100.00;98103.84;5032765;28;20037;-78
2023/03/14 07:56:17;;;;;;;2.17;0.60;;;9.50;99.90;;;9.54;100.00;98101.69;5033221;28;20045;-78
2023/03/14 07:58:43;;;;;;;2.88;0.70;;;9.40;99.90;;;9.40;100.00;98095.16;5032122;28;20048;-78
2023/03/14 08:01:09;;;;;;;3.80;0.40;;;9.30;99.90;;;9.44;100.00;98112.56;5033463;28;20470;-76
2023/03/14 08:03:34;;;;;;;1.55;0.50;;;9.20;99.90;;;9.32;100.00;98097.34;5032295;28;20037;-78
2023/03/14 08:06:00;;;;;;;2.22;0.63;;;9.10;99.90;;;9.21;100.00;98109.28;5039503;28;20041;-79
2023/03/14 08:08:26;;;;;;;3.17;0.40;;;9.00;99.90;;;9.05;100.00;98105.72;5031569;28;20044;-80
2023/03/14 08:10:51;;;;;;;1.60;0.65;;;8.90;99.90;;;9.02;100.00;98096.22;5031646;28;20036;-78
2023/03/14 08:13:17;;;;;;;1.80;0.38;;;8.90;99.90;;;8.93;100.00;98103.25;5030732;28;20045;-80
2023/03/14 08:15:47;;;;;;;4.40;0.52;;;8.80;99.90;;;9.16;100.00;98107.38;5032326;28;20485;-79
2023/03/14 08:18:14;;;;;;;1.65;0.40;;;8.80;99.90;;;8.88;100.00;98095.09;5028698;28;20493;-78
2023/03/14 08:20:40;;;;;;;2.65;0.60;;;8.80;99.90;;;8.96;100.00;98097.25;5032043;28;20481;-78
2023/03/14 08:23:06;;;;;;;1.40;0.50;;;8.90;99.90;;;8.95;100.00;98082.03;5030842;28;20040;-77
2023/03/14 08:25:32;;;;;;;1.73;0.70;;;8.90;99.90;;;9.13;100.00;98077.97;5032695;28;20041;-78
2023/03/14 08:27:57;;;;;;;2.95;0.50;;;9.00;99.90;;;9.24;100.00;98067.94;5029778;28;20888;-77
2023/03/14 08:30:23;;;;;;;1.23;0.50;;;9.10;99.90;;;9.24;100.00;98086.16;5047389;28;20049;-78
2023/03/14 08:32:49;;;;;;;1.10;0.30;;;9.20;99.90;;;9.25;100.00;98079.66;5031554;28;20047;-78
2023/03/14 08:35:15;;;;;;;1.73;0.50;;;9.20;99.90;;;9.15;100.00;98084.00;5031668;28;20025;-78
2023/03/14 08:37:41;;;;;;;1.10;0.30;;;9.20;99.90;;;9.30;100.00;98079.63;5031502;28;20033;-77
2023/03/14 08:40:09;;;;;;;1.73;0.43;;;9.20;99.90;;;9.37;100.00;98084.81;5031847;28;20500;-79
2023/03/14 08:42:36;;;;;;;0.77;0.35;;;9.30;99.90;;;9.24;100.00;98095.13;5031239;28;20068;-77
2023/03/14 08:45:03;;;;;;;0.95;0.30;;;9.20;99.90;;;9.45;100.00;98092.44;5032337;28;20033;-76
2023/03/14 08:47:29;;;;;;;0.95;0.32;;;9.30;99.90;;;9.61;100.00;98083.19;5031052;28;20073;-76
2023/03/14 08:49:55;;;;;;;1.58;0.43;;;9.50;99.90;;;9.60;100.00;98084.28;5031289;28;20075;-76
2023/03/14 08:52:21;;;;;;;1.85;0.35;;;9.60;99.90;;;9.58;100.00;98096.50;5038171;28;20438;-76
2023/03/14 08:54:47;;;;;;;1.33;0.30;;;9.50;99.90;;;9.73;100.00;98096.53;5030390;28;20029;-76
2023/03/14 08:57:13;;;;;;;1.25;0.25;;;9.50;99.90;;;9.84;100.00;98091.88;5031010;28;20041;-76
2023/03/14 08:59:39;;;;;;;2.28;0.38;;;9.60;99.90;;;9.92;100.00;98090.47;5041494;28;20401;-77
2023/03/14 09:02:05;;;;;;;1.67;0.32;;;9.70;99.90;;;10.32;100.00;98094.22;5030930;28;20041;-77
2023/03/14 09:04:32;;;;;;;2.25;0.38;;;10.00;99.90;;;10.31;100.00;98094.47;5030069;28;20044;-78
2023/03/14 09:06:59;;;;;;;3.15;0.50;;;10.10;99.90;;;10.19;100.00;98094.78;5046182;28;20033;-77
2023/03/14 09:09:28;;;;;;;1.45;0.70;;;10.10;99.90;;;10.41;100.00;98102.66;5032024;28;20044;-77
2023/03/14 09:11:54;;;;;;;2.38;0.57;;;10.30;99.90;;;10.47;100.00;98078.91;5042798;28;20037;-78
2023/03/14 09:14:20;;;;;;;2.20;0.90;;;10.30;99.90;;;10.50;100.00;98090.09;5042667;28;20044;-77
2023/03/14 09:16:46;;;;;;;1.88;0.60;;;10.40;99.90;;;10.42;100.00;98078.94;5031181;28;20405;-79
2023/03/14 09:19:11;;;;;;;2.95;0.95;;;10.30;99.90;;;10.46;100.00;98107.25;5045063;28;20037;-78
2023/03/14 09:21:38;;;;;;;3.72;0.65;;;10.30;99.90;;;10.56;100.00;98090.06;5031231;28;20088;-77
2023/03/14 09:24:05;;;;;;;2.92;0.70;;;10.40;99.90;;;10.65;100.00;98096.56;5029686;28;20759;-78
2023/03/14 09:26:31;;;;;;;3.42;0.80;;;10.40;99.90;;;10.91;100.00;98086.34;5030591;28;20029;-79
2023/03/14 09:28:57;;;;;;;3.00;0.80;;;10.50;99.90;;;10.93;100.00;98080.59;5027729;28;20374;-77
2023/03/14 09:31:23;;;;;;;4.93;0.60;;;10.70;99.90;;;11.19;100.00;98083.19;5030376;28;20049;-79
2023/03/14 09:33:48;;;;;;;3.33;0.68;;;10.90;99.90;;;11.05;100.00;98081.06;5029538;28;20041;-80
2023/03/14 09:36:14;;;;;;;2.17;0.80;;;10.90;99.90;;;11.14;100.00;98094.09;5031145;28;20033;-81
2023/03/14 09:38:40;;;;;;;3.08;0.80;;;10.90;99.90;;;11.21;100.00;98097.34;5031030;28;20041;-79
2023/03/14 09:41:21;;;;;;;1.67;0.60;;;10.90;99.90;;;10.98;100.00;98096.94;5029183;28;20030;-80
2023/03/14 09:43:50;;;;;;;2.08;0.65;;;10.90;99.90;;;11.04;100.00;98095.00;5026210;28;20060;-78
2023/03/14 09:46:17;;;;;;;3.38;0.80;;;10.80;99.90;;;10.99;100.00;98101.31;5030440;28;20038;-78
2023/03/14 09:48:44;;;;;;;2.33;0.80;;;10.80;99.90;;;11.17;100.00;98090.84;5025296;28;20088;-81
2023/03/14 09:51:20;;;;;;;3.47;0.90;;;10.80;99.90;;;11.45;100.00;98091.19;5030458;28;20389;-80
2023/03/14 09:53:49;;;;;;;4.53;1.02;;;11.10;99.90;;;11.38;100.00;98099.69;5043436;28;20045;-81
2023/03/14 09:56:27;;;;;;;1.17;0.80;;;11.20;99.90;;;11.56;100.00;98100.09;5024533;28;20037;-79
2023/03/14 09:59:06;;;;;;;2.08;0.70;;;11.30;99.90;;;12.08;100.00;98103.19;5025398;28;20412;-80
2023/03/14 10:01:33;;;;;;;2.30;0.60;;;11.70;99.90;;;12.39;100.00;98102.84;5027362;28;20061;-79
2023/03/14 10:04:16;;;;;;;1.75;0.57;;;12.20;99.90;;;12.60;100.00;98094.41;5029435;28;20033;-81
2023/03/14 10:06:42;;;;;;;2.20;0.60;;;12.70;99.90;;;12.37;100.00;98094.97;5030546;28;20030;-80
2023/03/14 10:09:27;;;;;;;2.05;0.47;;;12.50;99.90;;;12.46;100.00;98099.78;5030122;28;20397;-77
2023/03/14 10:11:59;;;;;;;1.00;0.43;;;12.40;99.90;;;12.57;100.00;98101.28;5027580;28;20039;-78
2023/03/14 10:14:33;;;;;;;1.30;0.60;;;12.40;99.90;;;12.63;100.00;98102.88;5026042;28;20473;-80
2023/03/14 10:17:12;;;;;;;1.27;0.57;;;12.40;99.90;;;12.71;100.00;98092.38;5025549;28;20033;-78
2023/03/14 10:19:54;;;;;;;2.13;0.65;;;12.40;99.90;;;13.23;99.30;98081.50;5039391;28;20038;-79
2023/03/14 10:22:22;;;;;;;1.73;0.60;;;12.70;99.90;;;13.49;97.46;98078.41;5031750;28;20037;-78
2023/03/14 10:25:27;;;;;;;0.82;0.30;;;13.20;99.90;;;13.18;96.38;98076.94;5030650;28;20380;-77
2023/03/14 10:27:52;;;;;;;1.42;0.60;;;13.20;99.90;;;12.79;95.21;98067.09;5030288;28;20100;-77
2023/03/14 10:30:43;;;;;;;1.48;0.65;;;12.80;99.90;;;12.62;98.07;98078.53;5029883;28;20065;-77
2023/03/14 10:33:34;;;;;;;1.88;0.50;;;12.60;99.90;;;12.32;100.00;98103.19;5024135;28;20547;-76